Time;durP1;ratioP1;P1;durP2;ratioP2;P2;SDS_P1;SDS_P2;PMS_P1;PMS_P2;Temp;Humidity;BMP_temperature;BMP_pressure;BME280_temperature;BME280_humidity;BME280_pressure;Samples;Min_cycle;Max_cycle;Signal;HPM_P1;HPM_P2
2023/04/15 00:01:08;;;;;;;11.75;6.57;;;6.70;85.20;;;;;;4993025;28;20046;-76
2023/04/15 00:03:34;;;;;;;12.00;6.60;;;6.70;85.10;;;;;;4993069;28;20065;-77
2023/04/15 00:06:00;;;;;;;14.52;6.43;;;6.60;85.40;;;;;;4993350;28;20073;-76
2023/04/15 00:08:26;;;;;;;11.95;6.57;;;6.60;85.50;;;;;;4992985;28;20491;-78
2023/04/15 00:10:52;;;;;;;10.15;6.15;;;6.50;85.70;;;;;;4992181;28;20058;-78
2023/04/15 00:13:18;;;;;;;14.15;6.32;;;6.50;85.80;;;;;;4960633;28;20054;-78
2023/04/15 00:15:43;;;;;;;11.20;6.07;;;6.50;85.80;;;;;;4977131;28;20038;-78
2023/04/15 00:18:09;;;;;;;8.88;6.32;;;6.50;85.60;;;;;;4977199;28;20061;-77
2023/04/15 00:20:35;;;;;;;14.75;6.93;;;6.40;85.20;;;;;;4976715;28;20462;-78
2023/04/15 00:23:02;;;;;;;10.63;6.03;;;6.40;85.00;;;;;;4992969;28;20113;-78
2023/04/15 00:25:28;;;;;;;13.65;6.53;;;6.40;85.20;;;;;;4960871;28;20039;-77
2023/04/15 00:27:54;;;;;;;13.80;7.05;;;6.30;85.30;;;;;;4977055;28;20044;-78
2023/04/15 00:30:20;;;;;;;15.00;6.57;;;6.40;85.00;;;;;;4992251;28;20077;-79
2023/04/15 00:32:45;;;;;;;15.35;6.82;;;6.30;84.90;;;;;;4976614;28;20038;-78
2023/04/15 00:35:11;;;;;;;10.38;6.93;;;6.30;85.00;;;;;;4992814;28;20133;-78
2023/04/15 00:37:37;;;;;;;11.73;6.22;;;6.30;85.30;;;;;;4992744;28;20112;-78
2023/04/15 00:40:05;;;;;;;14.43;7.07;;;6.20;85.40;;;;;;4976607;28;20049;-78
2023/04/15 00:42:33;;;;;;;11.90;6.63;;;6.20;85.30;;;;;;4993090;28;20085;-79
2023/04/15 00:44:59;;;;;;;20.45;6.95;;;6.20;85.40;;;;;;4992668;28;20050;-77
2023/04/15 00:47:28;;;;;;;11.00;6.10;;;6.20;85.50;;;;;;4976689;28;20038;-77
2023/04/15 00:49:53;;;;;;;10.00;5.95;;;6.10;85.50;;;;;;4991857;28;20049;-78
2023/04/15 00:52:19;;;;;;;11.73;6.65;;;6.10;85.40;;;;;;4976486;28;20051;-78
2023/04/15 00:54:45;;;;;;;9.77;5.95;;;6.10;85.40;;;;;;4976686;28;20054;-78
2023/04/15 00:57:10;;;;;;;12.98;6.45;;;6.10;85.50;;;;;;4976677;28;20124;-78
2023/04/15 00:59:36;;;;;;;9.10;5.63;;;6.10;85.60;;;;;;4960235;28;20046;-78
2023/04/15 01:02:02;;;;;;;9.55;5.95;;;6.00;85.70;;;;;;4976508;28;20401;-78
2023/04/15 01:04:28;;;;;;;9.45;6.35;;;6.00;85.60;;;;;;4976453;28;20379;-78
2023/04/15 01:06:53;;;;;;;12.43;7.10;;;6.00;85.60;;;;;;4976134;28;20046;-78
2023/04/15 01:09:19;;;;;;;11.27;8.18;;;6.00;85.60;;;;;;4960620;28;20050;-78
2023/04/15 01:11:45;;;;;;;13.35;6.80;;;5.90;85.80;;;;;;4964003;28;20509;-78
2023/04/15 01:14:11;;;;;;;10.52;7.40;;;5.90;85.50;;;;;;4980524;28;20039;-79
2023/04/15 01:16:38;;;;;;;12.65;7.85;;;5.90;85.40;;;;;;4996752;28;20046;-79
2023/04/15 01:19:09;;;;;;;13.70;7.25;;;5.90;85.40;;;;;;4980364;28;20053;-78
2023/04/15 01:21:38;;;;;;;14.23;8.57;;;5.80;85.60;;;;;;4995412;28;20038;-79
2023/04/15 01:24:09;;;;;;;11.73;8.02;;;5.80;85.40;;;;;;4995984;28;20502;-79
2023/04/15 01:26:37;;;;;;;13.95;7.50;;;5.80;85.60;;;;;;4996402;28;20065;-80
2023/04/15 01:29:03;;;;;;;13.40;7.78;;;5.70;86.10;;;;;;4996134;28;20046;-78
2023/04/15 01:31:28;;;;;;;16.55;7.57;;;5.80;85.90;;;;;;4979864;28;20605;-79
2023/04/15 01:33:54;;;;;;;10.35;6.97;;;5.70;86.20;;;;;;4995885;28;20491;-79
2023/04/15 01:36:20;;;;;;;17.15;8.25;;;5.70;86.10;;;;;;4996164;28;20042;-78
2023/04/15 01:38:46;;;;;;;11.93;8.25;;;5.70;86.20;;;;;;4978948;28;20113;-78
2023/04/15 01:41:13;;;;;;;15.13;8.55;;;5.70;86.00;;;;;;4995686;28;20050;-79
2023/04/15 01:43:39;;;;;;;11.98;8.48;;;5.70;85.70;;;;;;4979415;28;20624;-78
2023/04/15 01:46:05;;;;;;;14.50;8.40;;;5.70;86.20;;;;;;4979523;28;20140;-78
2023/04/15 01:48:32;;;;;;;13.50;9.05;;;5.70;86.10;;;;;;4995542;28;20205;-78
2023/04/15 01:50:58;;;;;;;12.75;8.32;;;5.70;86.30;;;;;;4995739;28;20035;-78
2023/04/15 01:53:24;;;;;;;11.90;8.77;;;5.60;86.10;;;;;;4979842;28;20129;-79
2023/04/15 01:55:50;;;;;;;13.27;8.85;;;5.70;85.90;;;;;;4995041;28;20042;-79
2023/04/15 01:58:17;;;;;;;14.88;9.85;;;5.60;86.60;;;;;;4995840;28;20096;-79
2023/04/15 02:00:44;;;;;;;17.98;9.00;;;5.70;86.40;;;;;;4995506;28;20077;-79
2023/04/15 02:03:10;;;;;;;11.00;8.27;;;5.60;87.00;;;;;;4979716;28;20136;-78
2023/04/15 02:05:35;;;;;;;14.73;10.05;;;5.70;87.00;;;;;;4995202;28;20052;-79
2023/04/15 02:08:02;;;;;;;16.55;10.30;;;5.70;87.00;;;;;;4995276;28;20038;-79
2023/04/15 02:10:28;;;;;;;18.67;10.48;;;5.70;87.30;;;;;;4995332;28;20398;-79
2023/04/15 02:12:54;;;;;;;14.20;9.80;;;5.70;87.20;;;;;;4978909;28;20048;-79
2023/04/15 02:15:19;;;;;;;19.08;10.38;;;5.70;87.30;;;;;;4947503;28;20038;-79
2023/04/15 02:17:49;;;;;;;14.38;9.95;;;5.70;87.60;;;;;;4995311;28;20078;-78
2023/04/15 02:20:16;;;;;;;13.35;9.43;;;5.70;87.20;;;;;;4979290;28;20100;-80
2023/04/15 02:22:42;;;;;;;15.35;10.60;;;5.70;87.70;;;;;;4978956;28;20133;-78
2023/04/15 02:25:08;;;;;;;14.88;10.25;;;5.70;87.50;;;;;;4995184;28;20125;-78
2023/04/15 02:27:35;;;;;;;16.60;10.45;;;5.70;87.50;;;;;;4978619;28;20050;-79
2023/04/15 02:30:01;;;;;;;17.02;11.13;;;5.70;87.60;;;;;;4978941;28;20121;-78
2023/04/15 02:32:27;;;;;;;18.52;11.02;;;5.70;87.90;;;;;;4979422;28;20133;-78
2023/04/15 02:34:53;;;;;;;15.82;11.10;;;5.60;87.90;;;;;;4994697;28;20047;-78
2023/04/15 02:37:19;;;;;;;15.57;10.10;;;5.60;87.80;;;;;;4994927;28;20057;-78
2023/04/15 02:39:45;;;;;;;16.35;11.38;;;5.60;87.90;;;;;;4962086;28;20149;-78
2023/04/15 02:42:12;;;;;;;15.40;11.10;;;5.60;87.90;;;;;;4994062;28;20494;-78
2023/04/15 02:44:38;;;;;;;16.75;11.00;;;5.60;88.40;;;;;;4961306;28;20562;-77
2023/04/15 02:47:05;;;;;;;14.57;10.48;;;5.50;88.70;;;;;;4977779;28;20486;-78
2023/04/15 02:49:31;;;;;;;17.20;10.50;;;5.50;88.20;;;;;;4994289;28;20050;-79
2023/04/15 02:51:58;;;;;;;15.65;10.65;;;5.50;88.50;;;;;;4977916;28;20395;-78
2023/04/15 02:54:27;;;;;;;14.05;11.43;;;5.50;88.30;;;;;;4978219;28;20042;-77
2023/04/15 02:56:55;;;;;;;16.73;10.95;;;5.40;88.40;;;;;;4977878;28;20056;-78
2023/04/15 02:59:21;;;;;;;15.70;11.20;;;5.50;88.70;;;;;;4993761;28;20081;-77
2023/04/15 03:01:46;;;;;;;15.02;10.73;;;5.40;88.60;;;;;;4993336;28;20046;-78
2023/04/15 03:04:13;;;;;;;18.17;11.90;;;5.40;88.40;;;;;;4993570;28;20043;-79
2023/04/15 03:06:39;;;;;;;15.70;11.70;;;5.40;88.30;;;;;;4977640;28;20044;-79
2023/04/15 03:09:04;;;;;;;18.02;10.52;;;5.30;88.40;;;;;;4995072;28;20038;-79
2023/04/15 03:11:30;;;;;;;15.18;10.65;;;5.30;88.50;;;;;;4980986;28;20405;-78
2023/04/15 03:13:57;;;;;;;16.13;11.75;;;5.30;88.50;;;;;;4981360;28;20045;-78
2023/04/15 03:16:23;;;;;;;16.20;10.85;;;5.30;88.40;;;;;;4996562;28;20046;-78
2023/04/15 03:18:49;;;;;;;17.77;11.43;;;5.20;88.40;;;;;;4997406;28;20088;-78
2023/04/15 03:21:15;;;;;;;13.57;11.27;;;5.20;88.50;;;;;;4997574;28;20038;-79
2023/04/15 03:23:40;;;;;;;15.40;10.63;;;5.10;88.50;;;;;;4980734;28;20430;-78
2023/04/15 03:26:06;;;;;;;14.18;11.68;;;5.20;88.40;;;;;;4981122;28;20042;-78
2023/04/15 03:28:32;;;;;;;17.83;11.35;;;5.20;88.20;;;;;;4980721;28;20493;-78
2023/04/15 03:30:58;;;;;;;15.40;10.75;;;5.10;87.90;;;;;;4996931;28;20397;-78
2023/04/15 03:33:24;;;;;;;15.13;11.63;;;5.10;88.00;;;;;;4995596;28;20068;-77
2023/04/15 03:35:50;;;;;;;15.77;11.05;;;5.10;88.30;;;;;;4996928;28;20045;-78
2023/04/15 03:38:17;;;;;;;13.07;10.65;;;5.10;88.20;;;;;;4996608;28;20172;-79
2023/04/15 03:40:43;;;;;;;15.65;11.30;;;5.00;88.40;;;;;;4980735;28;20038;-78
2023/04/15 03:43:09;;;;;;;18.90;11.60;;;5.00;88.40;;;;;;4997049;28;20134;-78
2023/04/15 03:45:34;;;;;;;17.83;11.23;;;5.00;88.70;;;;;;4996621;28;20545;-77
2023/04/15 03:48:00;;;;;;;16.67;11.95;;;5.00;88.70;;;;;;4996723;28;20034;-78
2023/04/15 03:50:26;;;;;;;17.92;11.98;;;5.00;88.90;;;;;;4996023;28;20065;-77
2023/04/15 03:52:52;;;;;;;17.88;11.45;;;5.00;88.90;;;;;;4980370;28;20049;-78
2023/04/15 03:55:19;;;;;;;16.98;11.77;;;5.00;88.70;;;;;;4996715;28;20048;-79
2023/04/15 03:57:44;;;;;;;15.38;11.13;;;5.00;88.70;;;;;;4980399;28;20481;-77
2023/04/15 04:00:10;;;;;;;18.27;11.30;;;5.00;88.80;;;;;;4996124;28;20049;-78
2023/04/15 04:02:36;;;;;;;17.45;11.57;;;4.90;88.70;;;;;;4980190;28;20048;-78
2023/04/15 04:05:02;;;;;;;17.55;11.98;;;4.90;88.70;;;;;;4996207;28;20046;-78
2023/04/15 04:07:28;;;;;;;17.52;12.05;;;4.90;88.70;;;;;;4979229;28;20044;-78
2023/04/15 04:09:55;;;;;;;16.65;12.02;;;4.90;88.70;;;;;;4992700;28;20515;-78
2023/04/15 04:12:21;;;;;;;17.30;12.90;;;4.80;88.70;;;;;;4993232;28;20039;-78
2023/04/15 04:14:47;;;;;;;18.85;13.18;;;4.80;88.70;;;;;;4976799;28;20556;-78
2023/04/15 04:17:13;;;;;;;17.60;13.02;;;4.80;88.80;;;;;;4977047;28;20049;-78
2023/04/15 04:19:38;;;;;;;18.15;12.00;;;4.80;88.60;;;;;;4992963;28;20042;-78
2023/04/15 04:22:04;;;;;;;17.02;11.88;;;4.70;88.30;;;;;;4993104;28;20569;-78
2023/04/15 04:24:30;;;;;;;17.50;13.07;;;4.70;88.40;;;;;;4987404;28;20060;-79
2023/04/15 04:26:56;;;;;;;20.10;12.75;;;4.60;88.50;;;;;;5018474;28;20046;-79
2023/04/15 04:29:22;;;;;;;19.33;13.65;;;4.60;88.60;;;;;;5002169;28;20057;-78
2023/04/15 04:31:48;;;;;;;19.63;13.52;;;4.60;88.70;;;;;;5000340;28;20106;-79
2023/04/15 04:34:14;;;;;;;19.52;13.13;;;4.60;88.80;;;;;;5014760;28;20209;-79
2023/04/15 04:36:40;;;;;;;20.95;13.50;;;4.60;89.00;;;;;;5013470;28;20089;-79
2023/04/15 04:39:06;;;;;;;20.05;14.35;;;4.60;89.00;;;;;;4992558;28;20046;-79
2023/04/15 04:41:32;;;;;;;22.02;14.32;;;4.60;89.10;;;;;;4975931;28;20052;-77
2023/04/15 04:43:58;;;;;;;19.92;13.70;;;4.60;89.00;;;;;;4975769;28;20050;-78
2023/04/15 04:46:24;;;;;;;21.45;13.98;;;4.60;89.10;;;;;;4993078;28;20042;-79
2023/04/15 04:48:49;;;;;;;22.02;14.20;;;4.60;88.80;;;;;;4992930;28;20450;-78
2023/04/15 04:51:15;;;;;;;18.92;13.00;;;4.60;88.90;;;;;;4976875;28;20576;-78
2023/04/15 04:53:42;;;;;;;18.15;13.85;;;4.60;88.70;;;;;;4993030;28;20108;-79
2023/04/15 04:56:07;;;;;;;22.20;15.45;;;4.60;88.80;;;;;;4992970;28;20121;-78
2023/04/15 04:58:33;;;;;;;18.15;12.98;;;4.60;88.80;;;;;;4976580;28;20100;-79
2023/04/15 05:00:59;;;;;;;18.80;12.57;;;4.70;88.60;;;;;;4976666;28;20049;-79
2023/04/15 05:03:25;;;;;;;19.45;13.70;;;4.70;88.50;;;;;;4992668;28;20065;-78
2023/04/15 05:05:50;;;;;;;20.15;14.27;;;4.80;89.00;;;;;;4976460;28;20049;-78
2023/04/15 05:08:16;;;;;;;19.73;13.48;;;4.80;89.10;;;;;;4976420;28;20039;-78
2023/04/15 05:10:42;;;;;;;16.20;11.63;;;4.80;88.90;;;;;;4992471;28;20072;-79
2023/04/15 05:13:07;;;;;;;17.58;12.73;;;4.80;88.90;;;;;;4976563;28;20051;-78
2023/04/15 05:15:35;;;;;;;17.95;13.70;;;4.80;89.00;;;;;;4959416;28;20125;-79
2023/04/15 05:18:02;;;;;;;20.88;13.45;;;4.80;89.20;;;;;;4992425;28;20050;-79
2023/04/15 05:20:27;;;;;;;18.35;12.90;;;4.70;88.90;;;;;;4992261;28;20052;-79
2023/04/15 05:22:53;;;;;;;17.65;13.60;;;4.80;89.00;;;;;;4992425;28;20184;-78
2023/04/15 05:25:19;;;;;;;16.08;12.10;;;4.90;88.70;;;;;;4976148;28;20038;-78
2023/04/15 05:27:45;;;;;;;18.70;13.43;;;4.90;88.80;;;;;;4975943;28;20441;-78
2023/04/15 05:30:11;;;;;;;20.58;14.43;;;4.90;89.30;;;;;;4959468;28;20126;-77
2023/04/15 05:32:36;;;;;;;16.90;12.23;;;4.90;89.30;;;;;;4992119;28;20066;-78
2023/04/15 05:35:02;;;;;;;19.15;13.73;;;5.00;89.30;;;;;;4992356;28;20042;-77
2023/04/15 05:37:28;;;;;;;18.00;12.07;;;5.00;89.20;;;;;;4992363;28;20045;-79
2023/04/15 05:39:54;;;;;;;16.70;12.00;;;5.00;88.90;;;;;;4976073;28;20043;-79
2023/04/15 05:42:19;;;;;;;15.85;11.85;;;5.10;88.90;;;;;;4976184;28;20096;-77
2023/04/15 05:44:45;;;;;;;20.42;13.52;;;5.10;88.70;;;;;;4975999;28;20069;-78
2023/04/15 05:47:11;;;;;;;15.13;11.90;;;5.20;89.00;;;;;;4991226;28;20034;-77
2023/04/15 05:49:37;;;;;;;20.70;14.60;;;5.30;88.60;;;;;;4992008;28;20165;-78
2023/04/15 05:52:03;;;;;;;22.45;14.55;;;5.30;89.00;;;;;;4976118;28;20038;-77
2023/04/15 05:54:28;;;;;;;18.48;13.82;;;5.40;88.80;;;;;;4992386;28;20660;-78
2023/04/15 05:56:56;;;;;;;17.02;12.05;;;5.50;88.80;;;;;;4977752;28;20177;-79
2023/04/15 05:59:22;;;;;;;21.75;13.80;;;5.60;88.70;;;;;;4979802;28;20050;-79
2023/04/15 06:01:48;;;;;;;18.80;12.65;;;5.70;88.70;;;;;;4979466;28;20042;-78
2023/04/15 06:04:14;;;;;;;20.55;14.57;;;5.80;89.10;;;;;;4963080;28;20383;-79
2023/04/15 06:06:40;;;;;;;14.10;11.70;;;5.80;88.90;;;;;;4979335;28;20054;-78
2023/04/15 06:09:05;;;;;;;16.73;12.20;;;6.00;88.80;;;;;;4963554;28;20046;-79
2023/04/15 06:11:31;;;;;;;16.95;11.50;;;6.10;88.90;;;;;;4994154;28;20528;-79
2023/04/15 06:13:56;;;;;;;15.45;11.32;;;6.20;89.00;;;;;;4995445;28;20073;-79
2023/04/15 06:16:22;;;;;;;12.68;10.23;;;6.30;89.00;;;;;;4979241;28;20046;-79
2023/04/15 06:18:48;;;;;;;14.30;10.35;;;6.40;89.10;;;;;;4995081;28;20478;-79
2023/04/15 06:21:14;;;;;;;14.13;10.50;;;6.50;89.00;;;;;;4978806;28;20133;-79
2023/04/15 06:23:41;;;;;;;14.35;10.55;;;6.70;89.00;;;;;;4994841;28;20042;-78
2023/04/15 06:26:06;;;;;;;14.73;11.55;;;6.90;89.00;;;;;;4995050;28;20035;-79
2023/04/15 06:28:32;;;;;;;14.32;9.57;;;7.10;89.20;;;;;;4961803;28;20050;-79
2023/04/15 06:30:58;;;;;;;16.52;10.18;;;7.20;89.30;;;;;;4978803;28;20185;-78
2023/04/15 06:33:24;;;;;;;13.25;9.38;;;7.40;89.40;;;;;;4995273;28;20054;-79
2023/04/15 06:35:50;;;;;;;15.35;9.90;;;7.60;89.60;;;;;;4995089;28;20561;-79
2023/04/15 06:38:15;;;;;;;13.20;9.23;;;7.80;89.60;;;;;;4978842;28;20046;-80
2023/04/15 06:40:41;;;;;;;14.13;9.18;;;7.90;89.60;;;;;;4978517;28;20046;-79
2023/04/15 06:43:08;;;;;;;13.00;9.38;;;8.00;89.80;;;;;;4978581;28;20541;-79
2023/04/15 06:45:34;;;;;;;12.82;9.73;;;8.10;89.60;;;;;;4961925;28;20042;-79
2023/04/15 06:48:00;;;;;;;12.65;8.57;;;8.10;89.50;;;;;;4978523;28;20223;-80
2023/04/15 06:50:26;;;;;;;15.40;9.32;;;8.30;89.50;;;;;;4962527;28;20129;-79
2023/04/15 06:52:53;;;;;;;14.13;9.85;;;8.40;89.20;;;;;;4978181;28;20042;-78
2023/04/15 06:55:19;;;;;;;14.45;9.88;;;8.40;89.10;;;;;;4994995;28;20394;-78
2023/04/15 06:57:44;;;;;;;13.95;10.68;;;8.50;89.00;;;;;;4994531;28;20039;-78
2023/04/15 07:00:11;;;;;;;13.50;9.50;;;8.50;89.00;;;;;;4962532;28;20038;-77
2023/04/15 07:02:37;;;;;;;14.55;9.85;;;8.60;89.00;;;;;;4994237;28;20502;-77
2023/04/15 07:05:05;;;;;;;11.48;8.65;;;8.60;88.90;;;;;;4993526;28;20054;-78
2023/04/15 07:07:31;;;;;;;13.05;8.68;;;8.70;88.60;;;;;;4994495;28;20050;-77
2023/04/15 07:09:56;;;;;;;13.43;9.52;;;8.80;88.50;;;;;;4978138;28;20469;-77
2023/04/15 07:12:22;;;;;;;12.63;9.35;;;8.80;88.40;;;;;;4962188;28;20045;-77
2023/04/15 07:14:48;;;;;;;14.55;8.98;;;8.80;88.40;;;;;;4994226;28;20498;-78
2023/04/15 07:17:14;;;;;;;17.50;12.13;;;8.90;88.50;;;;;;4971542;28;20144;-78
2023/04/15 07:19:40;;;;;;;12.18;8.85;;;9.00;88.20;;;;;;4967761;28;21765;-78
2023/04/15 07:22:06;;;;;;;12.80;9.20;;;9.00;88.30;;;;;;4983747;28;20038;-78
2023/04/15 07:24:32;;;;;;;13.70;9.15;;;9.10;87.80;;;;;;4952907;28;20058;-78
2023/04/15 07:26:58;;;;;;;9.77;7.72;;;9.20;87.50;;;;;;4993823;28;20042;-77
2023/04/15 07:29:25;;;;;;;11.38;9.10;;;9.30;87.20;;;;;;4993758;28;20049;-78
2023/04/15 07:31:50;;;;;;;11.02;7.60;;;9.30;86.90;;;;;;4993622;28;20077;-77
2023/04/15 07:34:17;;;;;;;12.07;8.18;;;9.50;86.70;;;;;;4993531;28;20289;-77
2023/04/15 07:36:43;;;;;;;7.28;5.40;;;9.60;86.30;;;;;;4981973;28;20047;-77
2023/04/15 07:39:09;;;;;;;8.60;6.07;;;9.80;85.60;;;;;;4974274;28;20049;-77
2023/04/15 07:41:34;;;;;;;6.88;5.05;;;9.90;84.80;;;;;;4958074;28;20487;-77
2023/04/15 07:44:00;;;;;;;8.77;4.80;;;10.00;83.20;;;;;;4973971;28;20093;-76
2023/04/15 07:46:26;;;;;;;5.90;4.35;;;10.10;82.80;;;;;;4958018;28;20039;-78
2023/04/15 07:48:52;;;;;;;5.13;3.97;;;10.10;82.40;;;;;;4973941;28;20070;-77
2023/04/15 07:51:20;;;;;;;6.90;4.90;;;10.10;81.40;;;;;;4973726;28;20047;-77
2023/04/15 07:53:47;;;;;;;8.90;4.55;;;10.20;81.00;;;;;;4973486;28;20053;-77
2023/04/15 07:56:13;;;;;;;8.48;4.75;;;10.20;80.50;;;;;;4993417;28;20050;-78
2023/04/15 07:58:39;;;;;;;5.97;3.42;;;10.10;80.80;;;;;;4993114;28;20103;-79
2023/04/15 08:01:05;;;;;;;5.60;3.50;;;10.20;80.70;;;;;;4976943;28;20038;-78
2023/04/15 08:03:31;;;;;;;5.05;3.85;;;10.20;80.50;;;;;;4993065;28;20061;-78
2023/04/15 08:05:57;;;;;;;5.25;4.05;;;10.20;80.40;;;;;;4993207;28;20053;-78
2023/04/15 08:08:23;;;;;;;8.98;4.95;;;10.10;80.60;;;;;;4977221;28;20038;-77
2023/04/15 08:10:49;;;;;;;8.73;4.63;;;10.10;80.60;;;;;;4975950;28;20402;-79
2023/04/15 08:13:15;;;;;;;11.65;4.95;;;10.10;80.60;;;;;;4993324;28;20046;-78
2023/04/15 08:15:42;;;;;;;6.07;4.28;;;10.10;80.80;;;;;;4977000;28;20492;-79
2023/04/15 08:18:07;;;;;;;7.55;4.25;;;10.10;81.10;;;;;;4992708;28;20043;-79
2023/04/15 08:20:33;;;;;;;5.45;4.13;;;10.10;81.50;;;;;;4993029;28;20045;-78
2023/04/15 08:22:59;;;;;;;5.45;3.92;;;10.10;81.80;;;;;;4976763;28;20040;-78
2023/04/15 08:25:26;;;;;;;5.32;3.20;;;10.10;81.40;;;;;;4992024;28;20399;-78
2023/04/15 08:27:54;;;;;;;4.60;3.50;;;10.10;80.40;;;;;;4960982;28;20049;-79
2023/04/15 08:30:20;;;;;;;5.60;4.03;;;10.10;79.90;;;;;;4993100;28;20068;-78
2023/04/15 08:32:46;;;;;;;4.95;3.70;;;10.10;80.20;;;;;;4976684;28;20384;-78
2023/04/15 08:35:12;;;;;;;7.78;4.40;;;10.20;80.20;;;;;;4992722;28;20053;-77
2023/04/15 08:37:38;;;;;;;8.15;4.15;;;10.30;80.60;;;;;;4992639;28;20486;-78
2023/04/15 08:40:04;;;;;;;6.35;3.75;;;10.30;80.90;;;;;;4992305;28;20045;-78
2023/04/15 08:42:33;;;;;;;4.30;3.50;;;10.40;80.50;;;;;;4963178;28;20073;-79
2023/04/15 08:45:02;;;;;;;7.68;4.53;;;10.40;79.80;;;;;;4972975;28;20117;-78
2023/04/15 08:47:30;;;;;;;5.20;3.10;;;10.50;80.00;;;;;;4956844;28;20409;-78
2023/04/15 08:49:58;;;;;;;6.45;4.32;;;10.60;79.80;;;;;;4988684;28;20050;-78
2023/04/15 08:52:27;;;;;;;9.93;4.07;;;10.50;79.60;;;;;;4989057;28;20394;-78
2023/04/15 08:54:59;;;;;;;7.53;4.38;;;10.50;79.70;;;;;;4956374;28;20045;-78
2023/04/15 08:57:26;;;;;;;12.30;5.95;;;10.50;79.90;;;;;;4992000;28;20065;-78
2023/04/15 08:59:56;;;;;;;9.40;5.70;;;10.40;80.20;;;;;;4991670;28;20042;-78
2023/04/15 09:02:23;;;;;;;7.65;4.07;;;10.40;80.80;;;;;;4991948;28;20502;-78
2023/04/15 09:04:48;;;;;;;5.82;3.75;;;10.30;81.10;;;;;;4991918;28;20046;-78
2023/04/15 09:07:15;;;;;;;6.10;4.38;;;10.30;79.80;;;;;;4992133;28;20038;-79
2023/04/15 09:09:41;;;;;;;8.13;4.05;;;10.20;80.00;;;;;;4991704;28;20035;-79
2023/04/15 09:12:07;;;;;;;6.68;4.03;;;10.20;80.50;;;;;;4959821;28;20117;-79
2023/04/15 09:14:33;;;;;;;6.07;3.72;;;10.20;80.80;;;;;;4975072;28;20042;-78
2023/04/15 09:17:03;;;;;;;8.35;4.82;;;10.20;80.40;;;;;;4975643;28;20132;-78
2023/04/15 09:19:30;;;;;;;6.80;3.47;;;10.10;80.60;;;;;;4976255;28;20088;-79
2023/04/15 09:21:57;;;;;;;8.15;3.58;;;10.10;81.00;;;;;;4976045;28;20467;-78
2023/04/15 09:24:24;;;;;;;7.85;3.53;;;10.10;80.50;;;;;;4976048;28;20125;-79
2023/04/15 09:26:54;;;;;;;5.00;2.90;;;10.00;80.70;;;;;;4959945;28;20081;-80
2023/04/15 09:29:23;;;;;;;5.95;3.53;;;10.10;80.80;;;;;;4944238;28;20084;-79
2023/04/15 09:31:49;;;;;;;5.70;3.33;;;10.20;80.20;;;;;;4965388;28;20166;-79
2023/04/15 09:34:15;;;;;;;6.05;3.60;;;10.20;80.20;;;;;;4974955;28;20133;-80
2023/04/15 09:36:47;;;;;;;5.80;3.65;;;10.40;79.90;;;;;;4958505;28;20061;-79
2023/04/15 09:39:13;;;;;;;5.18;2.80;;;10.40;80.10;;;;;;4975613;28;20447;-83
2023/04/15 09:41:39;;;;;;;5.25;2.80;;;10.50;79.20;;;;;;4943779;28;20047;-79
2023/04/15 09:44:05;;;;;;;5.53;3.20;;;10.50;79.70;;;;;;4959910;28;20035;-78
2023/04/15 09:46:44;;;;;;;5.45;3.25;;;10.70;79.30;;;;;;4976281;28;20042;-79
2023/04/15 09:49:11;;;;;;;3.35;2.25;;;10.80;79.60;;;;;;4978533;28;20418;-80
2023/04/15 09:51:37;;;;;;;7.30;2.78;;;10.90;79.00;;;;;;4979699;28;20046;-82
2023/04/15 09:54:03;;;;;;;5.43;2.85;;;10.90;77.90;;;;;;4962817;28;20042;-78
2023/04/15 09:56:37;;;;;;;5.20;2.33;;;11.00;77.80;;;;;;4962871;28;20050;-81
2023/04/15 09:59:04;;;;;;;4.20;1.92;;;11.10;77.60;;;;;;4978914;28;20159;-79
2023/04/15 10:01:31;;;;;;;3.67;2.13;;;11.00;76.30;;;;;;4961524;28;20486;-79
2023/04/15 10:03:57;;;;;;;3.30;1.73;;;11.10;76.40;;;;;;4976581;28;20042;-78
2023/04/15 10:06:26;;;;;;;4.00;1.85;;;11.10;77.30;;;;;;4974277;28;20490;-81
2023/04/15 10:08:52;;;;;;;6.03;2.05;;;11.10;76.30;;;;;;4959375;28;20487;-79
2023/04/15 10:11:20;;;;;;;8.55;3.22;;;11.10;75.80;;;;;;4958869;28;20141;-79
2023/04/15 10:13:49;;;;;;;4.65;2.17;;;11.00;76.20;;;;;;4959488;28;20046;-79
2023/04/15 10:16:18;;;;;;;2.08;1.35;;;11.00;76.40;;;;;;4975526;28;20105;-80
2023/04/15 10:18:46;;;;;;;2.83;1.70;;;11.00;76.10;;;;;;4975119;28;20053;-78
2023/04/15 10:21:17;;;;;;;4.00;1.45;;;11.00;76.10;;;;;;4975309;28;20050;-77
2023/04/15 10:23:44;;;;;;;2.50;1.38;;;11.00;75.20;;;;;;4977530;28;20518;-79
2023/04/15 10:26:13;;;;;;;2.33;1.50;;;11.00;75.70;;;;;;4962138;28;20486;-79
2023/04/15 10:28:39;;;;;;;2.40;1.10;;;11.10;76.00;;;;;;4962338;28;20095;-79
2023/04/15 10:31:06;;;;;;;3.05;1.25;;;11.30;75.90;;;;;;4978164;28;20509;-79
2023/04/15 10:33:33;;;;;;;4.95;1.50;;;11.30;75.40;;;;;;4978133;28;20584;-78
2023/04/15 10:36:00;;;;;;;2.00;1.13;;;11.30;75.70;;;;;;4962305;28;20048;-81
2023/04/15 10:38:40;;;;;;;4.22;1.40;;;11.30;75.80;;;;;;4977274;28;20073;-79
2023/04/15 10:41:16;;;;;;;3.90;1.40;;;11.40;75.80;;;;;;4977898;28;20510;-80
2023/04/15 10:43:51;;;;;;;3.67;1.50;;;11.40;75.70;;;;;;4977850;28;20197;-79
2023/04/15 10:46:44;;;;;;;3.55;1.33;;;11.30;75.80;;;;;;4975336;28;21585;-79
2023/04/15 10:49:13;;;;;;;4.05;1.20;;;11.20;75.90;;;;;;4942566;28;20042;-79
2023/04/15 10:51:46;;;;;;;2.83;1.50;;;11.20;75.60;;;;;;4942325;28;20042;-80
2023/04/15 10:54:29;;;;;;;4.00;1.50;;;11.10;76.00;;;;;;4958379;28;20047;-79
2023/04/15 10:57:04;;;;;;;4.60;1.55;;;11.10;76.00;;;;;;4974750;28;20046;-79
2023/04/15 11:00:22;;;;;;;3.42;1.88;;;11.00;76.90;;;;;;4977778;28;20058;-79
2023/04/15 11:02:57;;;;;;;3.67;1.50;;;11.00;77.10;;;;;;4925120;28;20046;-79
2023/04/15 11:05:52;;;;;;;2.47;1.25;;;11.00;77.10;;;;;;4961668;28;20173;-78
2023/04/15 11:08:19;;;;;;;3.75;1.63;;;11.00;76.90;;;;;;4977475;28;20038;-79
2023/04/15 11:10:45;;;;;;;4.05;1.25;;;11.00;76.80;;;;;;4982427;28;20068;-79
2023/04/15 11:13:10;;;;;;;3.10;1.50;;;11.00;76.50;;;;;;4963727;28;20046;-79
2023/04/15 11:15:41;;;;;;;2.78;1.30;;;11.00;76.90;;;;;;4990310;28;20491;-79
2023/04/15 11:18:13;;;;;;;5.38;2.05;;;11.00;76.60;;;;;;4958453;28;20407;-80
2023/04/15 11:20:41;;;;;;;4.20;1.70;;;11.00;76.50;;;;;;4959417;28;20046;-80
2023/04/15 11:23:08;;;;;;;3.13;1.30;;;10.90;76.90;;;;;;4984324;28;20560;-79
2023/04/15 11:25:36;;;;;;;4.13;1.40;;;11.00;76.40;;;;;;4968871;28;20042;-78
2023/04/15 11:28:02;;;;;;;2.13;1.65;;;11.00;76.30;;;;;;4982487;28;20100;-79
2023/04/15 11:30:31;;;;;;;4.22;1.63;;;11.10;75.70;;;;;;4968136;28;20035;-78
2023/04/15 11:33:07;;;;;;;3.63;2.03;;;11.00;75.80;;;;;;4983307;28;20046;-80
2023/04/15 11:35:34;;;;;;;4.03;1.40;;;11.00;76.30;;;;;;4982407;28;20123;-78
2023/04/15 11:38:05;;;;;;;3.70;1.85;;;10.90;77.30;;;;;;4983814;28;20382;-80
2023/04/15 11:40:34;;;;;;;3.25;1.65;;;10.80;77.50;;;;;;4983419;28;20050;-79
2023/04/15 11:43:20;;;;;;;4.22;2.45;;;10.80;77.40;;;;;;4981802;28;20041;-78
2023/04/15 11:45:57;;;;;;;6.38;2.03;;;10.80;77.60;;;;;;4988695;28;20038;-79
2023/04/15 11:48:25;;;;;;;3.17;1.35;;;10.70;77.50;;;;;;4992881;28;20045;-78
2023/04/15 11:51:05;;;;;;;3.90;2.00;;;10.60;78.20;;;;;;4993031;28;20486;-76
2023/04/15 11:53:46;;;;;;;5.03;1.40;;;10.60;78.70;;;;;;4991933;28;20532;-79
2023/04/15 11:56:20;;;;;;;4.60;1.52;;;10.60;78.50;;;;;;4992652;28;20521;-80
2023/04/15 11:58:49;;;;;;;7.00;1.30;;;10.60;77.10;;;;;;4994480;28;20045;-78
2023/04/15 12:01:15;;;;;;;5.72;1.45;;;10.60;77.30;;;;;;4992549;28;20129;-79
2023/04/15 12:03:43;;;;;;;2.70;1.10;;;10.60;77.90;;;;;;4976737;28;20180;-77
2023/04/15 12:06:18;;;;;;;3.70;1.50;;;10.60;77.90;;;;;;4976361;28;20045;-80
2023/04/15 12:08:52;;;;;;;3.65;1.20;;;10.60;77.80;;;;;;4976543;28;20039;-80
2023/04/15 12:11:37;;;;;;;4.05;1.23;;;10.60;77.60;;;;;;4992288;28;20096;-78
2023/04/15 12:14:16;;;;;;;7.65;1.15;;;10.70;77.80;;;;;;4992808;28;20050;-77
2023/04/15 12:16:44;;;;;;;5.05;1.92;;;10.70;77.70;;;;;;4975658;28;20108;-78
2023/04/15 12:19:15;;;;;;;4.53;1.08;;;10.70;77.80;;;;;;4992681;28;20080;-77
2023/04/15 12:21:44;;;;;;;7.10;1.60;;;10.60;78.00;;;;;;4976434;28;20042;-76
2023/04/15 12:24:11;;;;;;;8.57;1.65;;;10.50;78.40;;;;;;4992392;28;20046;-81
2023/04/15 12:26:45;;;;;;;6.25;1.25;;;10.50;79.20;;;;;;4976519;28;20041;-76
2023/04/15 12:29:12;;;;;;;8.45;1.55;;;10.40;79.40;;;;;;4972258;28;20034;-79
2023/04/15 12:31:50;;;;;;;3.35;1.35;;;10.30;78.90;;;;;;4976511;28;20080;-79
2023/04/15 12:34:16;;;;;;;4.70;1.52;;;10.30;79.30;;;;;;4976887;28;20042;-79
2023/04/15 12:36:42;;;;;;;4.72;1.20;;;10.30;79.20;;;;;;4974369;28;20170;-77
2023/04/15 12:39:08;;;;;;;3.70;1.17;;;10.10;79.00;;;;;;4993796;28;20030;-76
2023/04/15 12:41:34;;;;;;;7.38;1.48;;;10.10;78.90;;;;;;4998536;28;20042;-77
2023/04/15 12:44:00;;;;;;;6.15;1.60;;;10.10;79.60;;;;;;4979959;28;20061;-77